createdAt,value
2018-12-19T04:27:05.382Z,23.83
2018-12-19T04:29:34.786Z,25.37
2018-12-19T04:32:03.846Z,20.30
2018-12-19T04:34:32.888Z,22.80
2018-12-19T04:37:01.915Z,22.20
2018-12-19T04:39:30.987Z,20.67
2018-12-19T04:42:00.052Z,22.70
2018-12-19T04:44:29.125Z,20.27
2018-12-19T04:46:58.189Z,20.43
2018-12-19T04:49:27.255Z,22.67
2018-12-19T04:51:56.328Z,20.00
2018-12-19T04:54:25.375Z,19.60
2018-12-19T04:56:54.450Z,21.63
2018-12-19T04:59:23.496Z,21.67
2018-12-19T05:01:52.529Z,24.20
2018-12-19T05:04:21.601Z,23.47
2018-12-19T05:06:50.644Z,24.77
2018-12-19T05:09:19.706Z,21.53
2018-12-19T05:11:48.769Z,21.63
2018-12-19T05:14:18.047Z,24.20
2018-12-19T05:16:47.115Z,21.57
2018-12-19T05:19:16.195Z,23.30
2018-12-19T05:21:45.243Z,25.80
2018-12-19T05:24:14.319Z,25.97
2018-12-19T05:26:43.395Z,23.27
2018-12-19T05:29:12.499Z,22.80
2018-12-19T05:31:41.527Z,21.37
2018-12-19T05:34:10.583Z,23.57
2018-12-19T05:36:39.660Z,23.27
2018-12-19T05:39:08.697Z,23.33
2018-12-19T05:41:37.794Z,25.60
2018-12-19T05:44:06.844Z,24.00
2018-12-19T05:46:35.917Z,25.37
2018-12-19T05:49:08.720Z,22.30
2018-12-19T05:51:40.928Z,26.07
2018-12-19T05:54:13.208Z,21.43
2018-12-19T05:56:45.496Z,24.53
2018-12-19T05:59:18.000Z,26.23
2018-12-19T06:01:52.736Z,24.33
2018-12-19T06:04:26.976Z,23.30
2018-12-19T06:06:59.480Z,23.27
2018-12-19T06:09:34.296Z,23.07
2018-12-19T06:12:05.006Z,22.93
2018-12-19T06:14:37.799Z,21.07
2018-12-19T06:17:10.486Z,24.33
2018-12-19T06:19:42.904Z,22.63
2018-12-19T06:22:15.291Z,21.53
2018-12-19T06:24:47.692Z,22.70
2018-12-19T06:27:20.033Z,24.67
2018-12-19T06:29:54.794Z,21.73
2018-12-19T06:32:26.991Z,21.63
2018-12-19T06:34:59.190Z,19.67
2018-12-19T06:37:31.444Z,21.90
2018-12-19T06:40:04.714Z,21.03
2018-12-19T06:42:36.949Z,22.57
2018-12-19T06:45:09.652Z,18.87
2018-12-19T06:47:42.538Z,25.43
2018-12-19T06:50:15.685Z,21.37
2018-12-19T06:52:49.053Z,20.57
2018-12-19T06:55:24.093Z,20.10
2018-12-19T06:57:56.998Z,23.22
2018-12-19T07:00:29.427Z,18.27
2018-12-19T07:03:01.353Z,21.83
2018-12-19T07:05:31.874Z,19.73
2018-12-19T07:08:01.019Z,20.50
2018-12-19T07:10:31.856Z,18.43
2018-12-19T07:13:07.292Z,18.50
2018-12-19T07:15:41.886Z,19.87
2018-12-19T07:18:17.239Z,23.10
2018-12-19T07:20:50.180Z,20.97
2018-12-19T07:23:22.906Z,18.40
2018-12-19T07:25:55.932Z,21.40
2018-12-19T07:28:28.010Z,22.43
2018-12-19T07:33:32.705Z,26.50
2018-12-19T07:36:05.622Z,22.23
2018-12-19T07:38:39.176Z,21.60
2018-12-19T07:41:19.033Z,20.93
2018-12-19T07:43:52.684Z,20.17
2018-12-19T07:46:24.901Z,20.97
2018-12-19T07:48:57.928Z,22.40
2018-12-19T07:51:31.550Z,22.93
2018-12-19T07:54:04.597Z,21.80
2018-12-19T07:56:37.105Z,20.53
2018-12-19T07:59:09.604Z,21.20
2018-12-19T08:01:42.684Z,21.67
2018-12-19T08:04:16.360Z,23.90
2018-12-19T08:06:50.005Z,23.57
2018-12-19T08:09:22.439Z,28.63
2018-12-19T08:11:55.081Z,26.30
2018-12-19T08:14:27.273Z,26.67
2018-12-19T08:16:59.400Z,24.97
2018-12-19T08:19:32.220Z,28.30
2018-12-19T08:22:05.063Z,25.60
2018-12-19T08:24:39.193Z,23.43
2018-12-19T08:27:12.119Z,27.03
2018-12-19T08:29:44.915Z,24.47
2018-12-19T08:32:20.459Z,20.57
2018-12-19T08:34:52.559Z,21.33
2018-12-19T08:37:24.993Z,24.53
2018-12-19T08:39:57.297Z,20.80
2018-12-19T08:42:30.175Z,23.20
2018-12-19T08:45:03.406Z,22.73
2018-12-19T08:47:36.391Z,24.80
2018-12-19T08:50:09.780Z,25.23
2018-12-19T08:52:41.820Z,17.97
2018-12-19T08:55:14.967Z,22.57
2018-12-19T08:57:47.916Z,22.80
2018-12-19T09:00:20.246Z,24.17
2018-12-19T09:02:51.605Z,20.03
2018-12-19T09:05:24.312Z,20.33
2018-12-19T09:07:59.006Z,25.30
2018-12-19T09:10:31.407Z,21.60
2018-12-19T09:13:04.460Z,19.50
2018-12-19T09:15:42.071Z,19.73
2018-12-19T09:18:15.377Z,20.20
2018-12-19T09:20:50.371Z,21.13
2018-12-19T09:23:22.979Z,18.07
2018-12-19T09:25:55.927Z,21.23
2018-12-19T09:28:30.549Z,17.03
2018-12-19T09:31:03.323Z,17.30
2018-12-19T09:33:36.028Z,20.03
2018-12-19T09:36:08.195Z,21.20
2018-12-19T09:38:41.019Z,17.00
2018-12-19T09:41:14.355Z,18.53
2018-12-19T09:43:47.384Z,17.40
2018-12-19T09:46:20.372Z,17.40
2018-12-19T09:48:53.423Z,18.77
2018-12-19T09:51:26.744Z,18.70
2018-12-19T09:53:59.555Z,17.37
2018-12-19T09:56:32.574Z,20.17
2018-12-19T09:59:05.782Z,20.23
2018-12-19T10:01:38.765Z,19.37
2018-12-19T10:04:11.797Z,17.43
2018-12-19T10:06:44.799Z,18.83
2018-12-19T10:09:17.162Z,19.50
2018-12-19T10:11:50.140Z,20.57
2018-12-19T10:14:23.291Z,22.03
2018-12-19T10:16:56.398Z,22.53
2018-12-19T10:19:29.386Z,20.27
2018-12-19T10:22:02.184Z,19.97
2018-12-19T10:24:40.573Z,21.37
2018-12-19T10:27:16.854Z,20.17
2018-12-19T10:29:49.096Z,19.37
2018-12-19T10:32:22.186Z,18.47
2018-12-19T10:34:54.428Z,22.80
2018-12-19T10:37:26.646Z,24.47
2018-12-19T10:39:59.461Z,20.47
2018-12-19T10:42:32.022Z,18.60
2018-12-19T10:45:06.035Z,18.33
2018-12-19T10:47:38.956Z,18.10
2018-12-19T10:50:11.315Z,18.47
2018-12-19T10:52:43.421Z,18.77
2018-12-19T10:55:15.747Z,20.40
2018-12-19T10:57:48.023Z,20.87
2018-12-19T11:00:26.323Z,17.27
2018-12-19T11:03:01.090Z,24.90
2018-12-19T11:05:34.044Z,19.47
2018-12-19T11:08:06.203Z,23.47
2018-12-19T11:10:38.324Z,18.23
2018-12-19T11:13:10.403Z,18.17
2018-12-19T11:15:43.466Z,22.10
2018-12-19T11:18:16.390Z,20.30
2018-12-19T11:20:48.621Z,18.87
2018-12-19T11:23:20.829Z,19.73
2018-12-19T11:25:53.054Z,21.93
2018-12-19T11:28:26.100Z,17.00
2018-12-19T11:30:59.170Z,19.60
2018-12-19T11:33:31.572Z,22.80
2018-12-19T11:36:04.435Z,16.43
2018-12-19T11:38:37.444Z,18.93
2018-12-19T11:41:09.804Z,23.07
2018-12-19T11:43:42.370Z,18.07
2018-12-19T11:46:14.495Z,21.27
2018-12-19T11:48:46.903Z,18.70
2018-12-19T11:51:19.969Z,20.63
2018-12-19T11:53:52.220Z,19.57
2018-12-19T11:56:24.610Z,23.30
2018-12-19T11:58:56.776Z,22.17
2018-12-19T12:01:29.098Z,20.00
2018-12-19T12:04:01.368Z,20.10
2018-12-19T12:06:36.097Z,17.97
2018-12-19T12:09:09.081Z,19.83
2018-12-19T12:11:45.659Z,20.67
2018-12-19T12:14:15.472Z,18.53
2018-12-19T12:16:47.888Z,23.90
2018-12-19T12:19:21.046Z,19.90
2018-12-19T12:21:54.039Z,20.47
2018-12-19T12:24:26.340Z,22.83
2018-12-19T12:26:58.482Z,23.10
2018-12-19T12:29:31.527Z,21.50
2018-12-19T12:32:04.621Z,25.43
2018-12-19T12:34:36.922Z,23.33
2018-12-19T12:37:09.224Z,18.27
2018-12-19T12:39:41.344Z,21.80
2018-12-19T12:42:14.334Z,20.97
2018-12-19T12:44:46.680Z,22.93
2018-12-19T12:47:20.100Z,20.60
2018-12-19T12:49:52.799Z,22.03
2018-12-19T12:52:25.669Z,23.83
2018-12-19T12:54:58.691Z,19.90
2018-12-19T12:57:31.146Z,23.47
2018-12-19T13:00:04.304Z,25.73
2018-12-19T13:02:37.134Z,28.00
2018-12-19T13:05:09.363Z,22.20
2018-12-19T13:07:41.581Z,24.83
2018-12-19T13:10:13.847Z,24.57
2018-12-19T13:12:46.209Z,24.00
2018-12-19T13:15:24.559Z,23.73
2018-12-19T13:17:57.659Z,19.27
2018-12-19T13:20:30.548Z,23.80
2018-12-19T13:23:03.188Z,21.63
2018-12-19T13:25:35.975Z,22.33
2018-12-19T13:28:09.242Z,21.63
2018-12-19T13:30:41.551Z,23.77
2018-12-19T13:33:13.920Z,23.30
2018-12-19T13:35:46.183Z,23.93
2018-12-19T13:38:18.520Z,22.13
2018-12-19T13:40:51.735Z,22.03
2018-12-19T13:43:23.880Z,25.50
2018-12-19T13:45:56.310Z,27.67
2018-12-19T13:48:30.907Z,21.37
2018-12-19T13:51:03.569Z,22.00
2018-12-19T13:53:36.000Z,22.57
2018-12-19T13:56:09.059Z,20.23
2018-12-19T13:58:41.524Z,20.03
2018-12-19T14:01:14.500Z,21.40
2018-12-19T14:03:46.942Z,21.00
2018-12-19T14:06:19.360Z,20.67
2018-12-19T14:08:51.578Z,22.70
2018-12-19T14:11:23.832Z,20.73
2018-12-19T14:13:56.220Z,23.57
2018-12-19T14:16:29.206Z,22.67
2018-12-19T14:19:01.486Z,20.60
2018-12-19T14:21:34.104Z,21.73
2018-12-19T14:24:07.108Z,24.37
2018-12-19T14:26:40.116Z,18.73
2018-12-19T14:29:12.396Z,20.27
2018-12-19T14:31:44.813Z,21.80
2018-12-19T14:34:16.937Z,20.77
2018-12-19T14:36:49.136Z,19.07
2018-12-19T14:39:21.332Z,23.37
2018-12-19T14:41:53.677Z,19.03
2018-12-19T14:44:25.960Z,22.73
2018-12-19T14:46:58.180Z,23.67
2018-12-19T14:49:31.155Z,20.73
2018-12-19T14:52:04.048Z,19.33
2018-12-19T14:54:36.384Z,17.20
2018-12-19T14:57:08.517Z,17.83
2018-12-19T14:59:40.939Z,19.60
2018-12-19T15:02:13.017Z,20.00
2018-12-19T15:04:47.010Z,22.30
2018-12-19T15:07:19.515Z,20.80
2018-12-19T15:09:52.178Z,19.23
2018-12-19T15:12:25.929Z,20.73
2018-12-19T15:14:58.850Z,20.60
2018-12-19T15:17:31.045Z,17.67
2018-12-19T15:20:03.507Z,25.53
2018-12-19T15:22:35.815Z,21.47
2018-12-19T15:25:08.980Z,17.80
2018-12-19T15:27:41.902Z,17.90
2018-12-19T15:30:14.153Z,17.80
2018-12-19T15:32:47.392Z,20.40
2018-12-19T15:35:20.100Z,21.97
2018-12-19T15:37:52.275Z,21.13
2018-12-19T15:40:26.702Z,20.77
2018-12-19T15:42:59.316Z,19.73
2018-12-19T15:45:31.547Z,22.27
2018-12-19T15:48:03.851Z,23.63
2018-12-19T15:50:36.854Z,21.73
2018-12-19T15:53:09.045Z,20.40
2018-12-19T15:55:41.285Z,25.10
2018-12-19T15:58:13.404Z,20.67
2018-12-19T16:00:45.852Z,23.43
2018-12-19T16:03:18.024Z,23.77
2018-12-19T16:05:50.133Z,24.73
2018-12-19T16:08:22.430Z,22.60
2018-12-19T16:10:56.917Z,29.40
2018-12-19T16:13:29.788Z,24.83
2018-12-19T16:16:02.795Z,25.23
2018-12-19T16:18:35.786Z,30.80
2018-12-19T16:21:07.936Z,27.30
2018-12-19T16:23:40.063Z,31.73
2018-12-19T16:26:12.399Z,27.20
2018-12-19T16:28:44.616Z,23.93
2018-12-19T16:31:16.881Z,27.87
2018-12-19T16:33:49.265Z,21.33
2018-12-19T16:36:22.261Z,25.93
2018-12-19T16:38:54.456Z,25.33
2018-12-19T16:41:30.256Z,25.00
2018-12-19T16:44:03.024Z,25.67
2018-12-19T16:46:33.230Z,26.90
2018-12-19T16:49:06.857Z,25.80
2018-12-19T16:51:39.218Z,23.83
2018-12-19T16:54:11.411Z,32.57
2018-12-19T16:56:43.640Z,33.93
2018-12-19T16:59:14.136Z,43.17
2018-12-19T17:01:46.284Z,38.37
2018-12-19T17:04:18.513Z,29.97
2018-12-19T17:06:51.531Z,27.47
2018-12-19T17:09:23.703Z,25.37
2018-12-19T17:11:55.860Z,26.70
2018-12-19T17:14:28.060Z,28.10
2018-12-19T17:17:00.579Z,29.97
2018-12-19T17:19:32.768Z,23.80
2018-12-19T17:22:04.901Z,25.43
2018-12-19T17:24:40.725Z,25.93
2018-12-19T17:27:15.512Z,23.83
2018-12-19T17:29:50.744Z,26.37
2018-12-19T17:32:23.682Z,24.77
2018-12-19T17:34:54.355Z,22.80
2018-12-19T17:37:27.360Z,22.07
2018-12-19T17:40:00.308Z,21.50
2018-12-19T17:42:33.086Z,22.43
2018-12-19T17:45:05.810Z,22.80
2018-12-19T17:50:42.223Z,21.70
2018-12-19T17:53:14.368Z,21.60
2018-12-19T17:55:46.548Z,20.00
2018-12-19T17:58:21.114Z,20.63
2018-12-19T18:00:53.939Z,18.80
2018-12-19T18:03:27.125Z,20.87
2018-12-19T18:06:00.123Z,18.10
2018-12-19T18:08:32.655Z,20.80
2018-12-19T18:11:05.768Z,22.77
2018-12-19T18:13:39.197Z,22.00
2018-12-19T18:16:11.322Z,22.57
2018-12-19T18:18:43.673Z,22.97
2018-12-19T18:21:18.154Z,23.50
2018-12-19T18:23:51.001Z,24.33
2018-12-19T18:26:23.204Z,23.17
2018-12-19T18:28:55.412Z,22.43
2018-12-19T18:31:30.087Z,22.70
2018-12-19T18:34:02.849Z,26.60
2018-12-19T18:36:35.215Z,33.97
2018-12-19T18:39:09.103Z,36.30
2018-12-19T18:41:41.514Z,33.90
2018-12-19T18:44:16.176Z,27.47
2018-12-19T18:46:49.348Z,27.57
2018-12-19T18:49:22.565Z,26.97
2018-12-19T18:51:55.508Z,26.63
2018-12-19T18:54:28.032Z,24.17
2018-12-19T18:57:00.356Z,22.83
2018-12-19T18:59:33.395Z,24.23
2018-12-19T19:02:05.911Z,25.27
2018-12-19T19:04:42.520Z,26.63
2018-12-19T19:07:15.071Z,36.40
2018-12-19T19:09:49.074Z,34.80
2018-12-19T19:12:22.105Z,34.47
2018-12-19T19:14:55.161Z,34.37
2018-12-19T19:17:27.510Z,30.77
2018-12-19T19:19:59.808Z,32.60
2018-12-19T19:22:32.777Z,32.80
2018-12-19T19:25:05.431Z,34.00
2018-12-19T19:27:38.504Z,29.03
2018-12-19T19:30:12.772Z,29.83
2018-12-19T19:32:45.806Z,31.87
2018-12-19T19:35:18.923Z,44.77
2018-12-19T19:37:52.851Z,34.60
2018-12-19T19:40:26.878Z,30.10
2018-12-19T19:43:00.242Z,31.47
2018-12-19T19:45:46.954Z,32.23
2018-12-19T19:48:21.011Z,28.67
2018-12-19T19:50:56.515Z,28.00
2018-12-19T19:53:26.966Z,26.87
2018-12-19T19:55:56.484Z,27.03
2018-12-19T19:58:33.507Z,27.93
2018-12-19T20:01:09.070Z,25.97
2018-12-19T20:03:40.759Z,30.97
2018-12-19T20:06:10.521Z,34.63
2018-12-19T20:08:44.537Z,29.97
2018-12-19T20:11:14.966Z,32.33
2018-12-19T20:13:45.840Z,30.43
2018-12-19T20:16:15.362Z,30.03
2018-12-19T20:18:44.705Z,38.47
2018-12-19T20:21:15.371Z,34.87
2018-12-19T20:23:44.559Z,33.93
2018-12-19T20:26:13.719Z,35.77
2018-12-19T20:28:43.539Z,43.83
2018-12-19T20:31:14.253Z,52.53
2018-12-19T20:33:49.504Z,36.63
2018-12-19T20:36:19.857Z,37.73
2018-12-19T20:38:49.553Z,35.93
2018-12-19T20:41:19.840Z,32.90
2018-12-19T20:43:52.374Z,33.47
2018-12-19T20:46:22.030Z,39.23
2018-12-19T20:48:52.707Z,34.27
2018-12-19T20:51:24.364Z,36.07
2018-12-19T20:53:55.114Z,35.07
2018-12-19T20:56:26.201Z,37.43
2018-12-19T20:58:55.836Z,35.17
2018-12-19T21:01:25.612Z,37.70
2018-12-19T21:03:55.167Z,33.50
2018-12-19T21:06:25.061Z,30.13
2018-12-19T21:08:55.136Z,31.30
2018-12-19T21:11:24.195Z,26.70
2018-12-19T21:13:53.438Z,29.63
2018-12-19T21:16:26.958Z,30.57
2018-12-19T21:18:57.016Z,30.33
2018-12-19T21:21:27.215Z,28.10
2018-12-19T21:23:56.530Z,30.07
2018-12-19T21:26:25.763Z,26.13
2018-12-19T21:28:54.856Z,26.20
2018-12-19T21:31:23.933Z,26.90
2018-12-19T21:33:53.039Z,25.33
2018-12-19T21:36:22.097Z,28.83
2018-12-19T21:38:51.246Z,27.00
2018-12-19T21:41:20.380Z,31.23
2018-12-19T21:43:53.672Z,31.03
2018-12-19T21:46:20.754Z,28.50
2018-12-19T21:48:49.914Z,27.63
2018-12-19T21:51:18.952Z,26.87
2018-12-19T21:53:48.307Z,28.83
